createdAt,value
2022-10-28T00:04:08.965Z,19.78
2022-10-28T00:14:13.765Z,19.70
2022-10-28T00:24:16.935Z,19.71
2022-10-28T00:34:22.818Z,19.76
2022-10-28T00:44:49.374Z,19.79
2022-10-28T00:54:55.105Z,19.76
2022-10-28T01:04:58.196Z,19.72
2022-10-28T01:15:11.702Z,19.80
2022-10-28T01:25:37.805Z,19.80
2022-10-28T01:35:50.596Z,19.73
2022-10-28T01:46:00.297Z,19.72
2022-10-28T01:56:10.825Z,19.74
2022-10-28T02:06:18.433Z,19.70
2022-10-28T02:16:26.189Z,19.66
2022-10-28T02:26:36.131Z,19.65
2022-10-28T02:36:44.827Z,19.62
2022-10-28T02:46:51.100Z,19.57
2022-10-28T02:57:00.971Z,19.79
2022-10-28T03:07:03.906Z,19.37
2022-10-28T03:17:08.811Z,19.38
2022-10-28T03:27:11.921Z,19.48
2022-10-28T03:37:16.225Z,19.50
2022-10-28T03:47:19.225Z,19.45
2022-10-28T03:57:24.986Z,19.37
2022-10-28T04:07:28.035Z,19.31
2022-10-28T04:17:32.386Z,19.30
2022-10-28T04:27:35.540Z,19.28
2022-10-28T04:37:39.891Z,19.17
2022-10-28T04:47:42.816Z,18.87
2022-10-28T04:57:54.605Z,18.71
2022-10-28T05:07:57.828Z,18.60
2022-10-28T05:18:02.154Z,18.74
2022-10-28T05:28:05.907Z,18.98
2022-10-28T05:38:10.301Z,19.21
2022-10-28T05:48:13.263Z,19.32
2022-10-28T05:58:18.003Z,19.30
2022-10-28T06:08:20.968Z,19.18
2022-10-28T06:18:24.299Z,19.05
2022-10-28T06:28:27.758Z,19.00
2022-10-28T06:38:32.038Z,18.95
2022-10-28T06:48:36.521Z,18.88
2022-10-28T06:58:40.917Z,18.95
2022-10-28T07:08:43.977Z,18.90
2022-10-28T07:18:48.329Z,19.08
2022-10-28T07:28:51.371Z,19.20
2022-10-28T07:38:55.645Z,19.42
2022-10-28T07:48:58.677Z,19.47
2022-10-28T07:59:02.872Z,19.54
2022-10-28T08:09:05.901Z,19.60
2022-10-28T08:19:12.058Z,19.58
2022-10-28T08:29:15.163Z,19.70
2022-10-28T08:39:19.494Z,20.05
2022-10-28T08:49:24.932Z,20.35
2022-10-28T08:59:34.971Z,20.60
2022-10-28T09:09:38.193Z,21.00
2022-10-28T09:19:48.853Z,21.14
2022-10-28T09:29:59.919Z,21.71
2022-10-28T09:40:14.848Z,21.85
2022-10-28T09:50:21.949Z,21.89
2022-10-28T10:00:26.406Z,21.76
2022-10-28T10:10:33.652Z,22.16
2022-10-28T10:20:50.610Z,22.63
2022-10-28T10:30:54.628Z,22.58
2022-10-28T10:40:59.233Z,22.58
2022-10-28T10:51:07.895Z,22.56
2022-10-28T11:01:20.758Z,22.82
2022-10-28T11:11:32.646Z,23.25
2022-10-28T11:21:52.973Z,23.25
2022-10-28T11:32:15.086Z,23.99
2022-10-28T11:42:31.713Z,24.38
2022-10-28T11:52:50.781Z,24.39
2022-10-28T12:03:13.422Z,24.34
2022-10-28T12:13:29.210Z,24.75
2022-10-28T12:23:37.407Z,24.95
2022-10-28T12:33:45.035Z,24.95
2022-10-28T12:43:54.267Z,24.80
2022-10-28T12:54:01.864Z,24.79
2022-10-28T13:04:06.595Z,24.76
2022-10-28T13:14:21.927Z,24.79
2022-10-28T13:24:33.664Z,24.88
2022-10-28T13:34:40.396Z,24.79
2022-10-28T13:44:55.481Z,24.80
2022-10-28T13:54:59.745Z,24.62
2022-10-28T14:05:07.273Z,24.48
2022-10-28T14:15:21.959Z,24.37
2022-10-28T14:26:05.569Z,24.14
2022-10-28T14:36:32.322Z,24.22
2022-10-28T14:46:52.858Z,24.10
2022-10-28T14:56:56.993Z,24.02
2022-10-28T15:07:01.875Z,23.83
2022-10-28T15:17:13.816Z,23.65
2022-10-28T15:27:18.840Z,23.57
2022-10-28T15:37:24.017Z,23.45
2022-10-28T15:47:33.341Z,23.46
2022-10-28T15:57:48.314Z,23.28
2022-10-28T16:07:52.969Z,23.29
2022-10-28T16:17:56.590Z,23.18
2022-10-28T16:28:01.482Z,23.51
2022-10-28T16:38:04.606Z,23.32
2022-10-28T16:48:13.034Z,22.77
2022-10-28T16:58:16.263Z,22.80
2022-10-28T17:08:42.104Z,22.76
2022-10-28T17:18:43.720Z,22.65
2022-10-28T17:28:52.107Z,22.68
2022-10-28T17:38:56.081Z,22.46
2022-10-28T17:49:00.444Z,22.49
2022-10-28T17:59:04.460Z,22.52
2022-10-28T18:09:12.789Z,22.46
2022-10-28T18:19:16.083Z,22.33
2022-10-28T18:29:20.300Z,22.30
2022-10-28T18:39:23.292Z,22.28
2022-10-28T18:49:27.705Z,22.29
2022-10-28T18:59:30.809Z,22.33
2022-10-28T19:09:35.160Z,22.19
2022-10-28T19:19:39.325Z,21.94
2022-10-28T19:29:46.286Z,22.02
2022-10-28T19:39:55.677Z,21.96
2022-10-28T19:50:00.988Z,22.17
2022-10-28T20:00:04.815Z,21.98
2022-10-28T20:10:16.518Z,21.79
2022-10-28T20:20:19.593Z,21.15
2022-10-28T20:30:23.979Z,21.07
2022-10-28T20:40:27.191Z,20.89
2022-10-28T20:50:31.779Z,20.91
2022-10-28T21:00:34.931Z,20.53
2022-10-28T21:10:46.038Z,20.66
2022-10-28T21:20:49.078Z,20.58
2022-10-28T21:31:00.297Z,20.30
2022-10-28T21:41:04.848Z,20.44
2022-10-28T21:51:13.638Z,20.66
2022-10-28T22:01:19.677Z,20.49
2022-10-28T22:11:25.169Z,20.55
2022-10-28T22:21:30.325Z,20.26
2022-10-28T22:31:34.477Z,20.31
2022-10-28T22:41:37.370Z,19.02
2022-10-28T22:51:41.729Z,19.23
2022-10-28T23:01:44.974Z,19.89
2022-10-28T23:11:49.394Z,19.69
2022-10-28T23:21:52.888Z,19.74
2022-10-28T23:31:57.362Z,19.45
2022-10-28T23:42:00.412Z,19.43
2022-10-28T23:52:05.148Z,19.46
